Time;durP1;ratioP1;P1;durP2;ratioP2;P2;SDS_P1;SDS_P2;PMS_P1;PMS_P2;Temp;Humidity;BMP_temperature;BMP_pressure;BME280_temperature;BME280_humidity;BME280_pressure;Samples;Min_cycle;Max_cycle;Signal;HPM_P1;HPM_P2
2022/08/01 00:00:03;;;;;;;;;;;;;;;24.94;47.77;100375.13;7407880;19;1322;-56
2022/08/01 00:02:31;;;;;;;;;;;;;;;25.04;47.40;100353.22;7405929;19;1351;-56
2022/08/01 00:05:00;;;;;;;;;;;;;;;25.08;47.13;100362.63;7406206;19;1328;-57
2022/08/01 00:07:28;;;;;;;;;;;;;;;25.07;47.93;100345.56;7407926;19;1205;-56
2022/08/01 00:09:59;;;;;;;;;;;;;;;25.13;47.57;100361.06;7407927;19;1843;-64
2022/08/01 00:12:27;;;;;;;;;;;;;;;24.93;47.75;100347.25;7408287;19;1337;-64
2022/08/01 00:14:56;;;;;;;;;;;;;;;24.95;48.14;100341.66;7408040;19;1300;-63
2022/08/01 00:17:24;;;;;;;;;;;;;;;24.82;48.45;100350.38;7407592;19;1333;-56
2022/08/01 00:19:52;;;;;;;;;;;;;;;24.75;48.54;100353.00;7408163;19;1671;-64
2022/08/01 00:22:21;;;;;;;;;;;;;;;24.61;48.91;100353.78;7408998;19;1387;-64
2022/08/01 00:24:49;;;;;;;;;;;;;;;24.54;48.89;100350.13;7408149;19;1233;-64
2022/08/01 00:27:20;;;;;;;;;;;;;;;24.58;48.67;100341.47;7405741;19;1486;-56
2022/08/01 00:29:48;;;;;;;;;;;;;;;24.44;48.96;100347.66;7407491;19;1849;-65
2022/08/01 00:32:17;;;;;;;;;;;;;;;24.54;48.67;100340.16;7406678;19;1230;-64
2022/08/01 00:34:45;;;;;;;;;;;;;;;24.49;48.67;100349.81;7406357;19;1314;-56
2022/08/01 00:37:14;;;;;;;;;;;;;;;24.66;48.14;100343.25;7405470;19;1319;-57
2022/08/01 00:39:42;;;;;;;;;;;;;;;24.51;48.31;100329.72;7407247;19;1438;-57
2022/08/01 00:42:12;;;;;;;;;;;;;;;24.55;48.44;100352.66;7404479;19;1270;-56
2022/08/01 00:44:43;;;;;;;;;;;;;;;24.39;47.97;100339.22;7406277;19;1370;-56
2022/08/01 00:47:11;;;;;;;;;;;;;;;24.53;48.05;100343.91;7404998;19;1812;-64
2022/08/01 00:49:40;;;;;;;;;;;;;;;24.54;47.91;100347.44;7406869;19;1313;-64
2022/08/01 00:52:09;;;;;;;;;;;;;;;24.46;48.33;100332.09;7403808;19;1868;-63
2022/08/01 00:54:37;;;;;;;;;;;;;;;24.48;47.73;100342.72;7403549;19;1295;-56
2022/08/01 00:57:06;;;;;;;;;;;;;;;24.59;47.55;100337.75;7405233;19;1697;-57
2022/08/01 00:59:34;;;;;;;;;;;;;;;24.50;47.54;100341.53;7405020;19;1541;-57
2022/08/01 01:02:05;;;;;;;;;;;;;;;24.61;47.15;100360.03;7403467;19;1367;-56
2022/08/01 01:04:34;;;;;;;;;;;;;;;24.48;47.33;100342.72;7406464;19;1333;-63
2022/08/01 01:07:06;;;;;;;;;;;;;;;24.63;47.25;100321.16;7406464;19;1306;-56
2022/08/01 01:09:37;;;;;;;;;;;;;;;24.56;47.63;100332.72;7406565;19;1536;-56
2022/08/01 01:12:12;;;;;;;;;;;;;;;24.58;47.90;100335.22;7404939;19;1869;-56
2022/08/01 01:14:46;;;;;;;;;;;;;;;24.55;47.42;100341.84;7406044;19;1233;-56
2022/08/01 01:17:19;;;;;;;;;;;;;;;24.51;47.53;100340.53;7405529;19;1424;-56
2022/08/01 01:19:48;;;;;;;;;;;;;;;24.53;47.52;100335.78;7405762;19;1711;-64
2022/08/01 01:22:24;;;;;;;;;;;;;;;24.71;47.07;100337.31;7406543;19;1376;-56
2022/08/01 01:25:01;;;;;;;;;;;;;;;24.83;46.69;100335.84;7407329;19;1245;-64
2022/08/01 01:27:35;;;;;;;;;;;;;;;24.88;46.71;100335.28;7404157;19;1372;-64
2022/08/01 01:30:06;;;;;;;;;;;;;;;24.89;47.04;100356.75;7404135;19;1364;-57
2022/08/01 01:32:36;;;;;;;;;;;;;;;24.77;47.02;100350.94;7405410;19;1580;-56
2022/08/01 01:35:08;;;;;;;;;;;;;;;24.91;46.57;100335.75;7405690;19;1309;-63
2022/08/01 01:37:36;;;;;;;;;;;;;;;24.83;46.96;100337.69;7404518;19;1544;-56
2022/08/01 01:40:07;;;;;;;;;;;;;;;24.87;46.39;100323.63;7405439;19;1288;-56
2022/08/01 01:42:35;;;;;;;;;;;;;;;24.90;46.39;100330.53;7402331;19;1262;-64
2022/08/01 01:45:08;;;;;;;;;;;;;;;24.85;46.76;100324.81;7403858;19;1249;-64
2022/08/01 01:47:37;;;;;;;;;;;;;;;24.71;46.82;100297.59;7404261;19;1284;-62
2022/08/01 01:50:06;;;;;;;;;;;;;;;24.74;46.66;100312.59;7402790;19;1208;-56
2022/08/01 01:52:35;;;;;;;;;;;;;;;24.79;46.47;100311.03;7402327;19;1851;-63
2022/08/01 01:55:05;;;;;;;;;;;;;;;24.66;46.83;100307.28;7405534;19;1271;-56
2022/08/01 01:57:34;;;;;;;;;;;;;;;24.82;46.45;100307.09;7402257;19;1455;-56
2022/08/01 02:02:53;;;;;;;;;;;;;;;24.97;46.34;100305.25;7378117;19;2647;-40
2022/08/01 02:05:23;;;;;;;;;;;;;;;24.90;46.52;100304.31;7398208;19;1335;-39
2022/08/01 02:07:53;;;;;;;;;;;;;;;24.79;46.72;100304.78;7401013;19;1867;-39
2022/08/01 02:10:30;;;;;;;;;;;;;;;24.82;46.51;100326.03;7400512;19;1644;-39
2022/08/01 02:13:02;;;;;;;;;;;;;;;24.55;46.91;100314.81;7400123;19;1438;-40
2022/08/01 02:15:38;;;;;;;;;;;;;;;24.42;46.75;100303.75;7399474;19;1520;-39
2022/08/01 02:18:14;;;;;;;;;;;;;;;24.43;47.30;100316.22;7398027;19;1510;-41
2022/08/01 02:20:43;;;;;;;;;;;;;;;24.44;47.02;100317.91;7399192;19;1448;-39
2022/08/01 02:23:19;;;;;;;;;;;;;;;24.40;46.80;100317.44;7398698;19;1547;-40
2022/08/01 02:25:54;;;;;;;;;;;;;;;24.19;47.49;100320.84;7400807;19;1298;-39
2022/08/01 02:28:30;;;;;;;;;;;;;;;24.34;46.67;100303.81;7397785;19;1725;-39
2022/08/01 02:31:05;;;;;;;;;;;;;;;24.53;46.41;100316.88;7398594;19;1874;-39
2022/08/01 02:33:48;;;;;;;;;;;;;;;24.48;46.64;100321.09;7399648;19;1641;-39
2022/08/01 02:36:24;;;;;;;;;;;;;;;24.43;46.91;100321.63;7398827;19;1836;-39
2022/08/01 02:38:56;;;;;;;;;;;;;;;24.52;46.66;100331.41;7399424;19;1686;-39
2022/08/01 02:41:31;;;;;;;;;;;;;;;24.53;46.90;100319.56;7400450;19;1910;-39
2022/08/01 02:44:04;;;;;;;;;;;;;;;24.66;46.60;100315.41;7399679;19;1578;-39
2022/08/01 02:46:38;;;;;;;;;;;;;;;24.75;46.52;100316.97;7400128;19;2105;-39
2022/08/01 02:49:11;;;;;;;;;;;;;;;24.64;46.72;100323.69;7399215;19;2045;-39
2022/08/01 02:51:44;;;;;;;;;;;;;;;24.60;46.84;100315.09;7398766;19;1896;-39
2022/08/01 02:54:33;;;;;;;;;;;;;;;24.75;46.50;100303.44;7398895;19;1842;-39
2022/08/01 02:57:06;;;;;;;;;;;;;;;24.71;46.62;100316.53;7399277;19;1741;-40
2022/08/01 02:59:38;;;;;;;;;;;;;;;24.65;46.70;100309.16;7398024;19;1599;-39
2022/08/01 03:02:08;;;;;;;;;;;;;;;24.67;46.54;100311.66;7397804;19;1539;-39
2022/08/01 03:04:40;;;;;;;;;;;;;;;24.63;46.94;100311.22;7398146;19;1336;-39
2022/08/01 03:07:11;;;;;;;;;;;;;;;24.43;47.28;100316.22;7398384;19;1845;-39
2022/08/01 03:09:44;;;;;;;;;;;;;;;24.66;46.98;100326.22;7400341;19;1392;-39
2022/08/01 03:12:13;;;;;;;;;;;;;;;24.69;46.77;100298.78;7397238;19;1860;-39
2022/08/01 03:14:45;;;;;;;;;;;;;;;24.74;46.69;100312.59;7398417;19;1546;-39
2022/08/01 03:17:24;;;;;;;;;;;;;;;24.73;46.99;100316.31;7400730;19;1581;-39
2022/08/01 03:19:57;;;;;;;;;;;;;;;24.79;46.78;100316.44;7405836;19;1590;-40
2022/08/01 03:22:27;;;;;;;;;;;;;;;24.80;46.79;100322.69;7404833;19;1730;-39
2022/08/01 03:25:02;;;;;;;;;;;;;;;24.80;46.97;100301.03;7406199;19;1476;-38
2022/08/01 03:27:33;;;;;;;;;;;;;;;24.83;46.74;100308.81;7405314;19;1469;-39
2022/08/01 03:30:07;;;;;;;;;;;;;;;24.83;46.49;100311.50;7403875;19;1683;-39
2022/08/01 03:32:38;;;;;;;;;;;;;;;24.83;47.06;100299.81;7404096;19;1848;-39
2022/08/01 03:35:18;;;;;;;;;;;;;;;24.77;47.05;100310.38;7403600;19;1840;-39
2022/08/01 03:37:48;;;;;;;;;;;;;;;24.83;46.79;100295.28;7404750;19;1596;-39
2022/08/01 03:40:20;;;;;;;;;;;;;;;24.87;46.88;100302.00;7406260;19;1645;-41
2022/08/01 03:42:50;;;;;;;;;;;;;;;24.90;47.06;100312.44;7402703;19;1979;-39
2022/08/01 03:45:27;;;;;;;;;;;;;;;24.97;47.12;100312.53;7405922;19;1806;-39
2022/08/01 03:47:58;;;;;;;;;;;;;;;25.00;47.16;100296.75;7404561;19;1784;-40
2022/08/01 03:50:39;;;;;;;;;;;;;;;25.08;46.54;100313.94;7405309;19;1598;-39
2022/08/01 03:53:14;;;;;;;;;;;;;;;25.01;47.33;100301.16;7401757;19;1842;-39
2022/08/01 03:55:47;;;;;;;;;;;;;;;24.96;47.24;100291.91;7406071;19;1253;-39
2022/08/01 03:58:18;;;;;;;;;;;;;;;24.95;47.03;100304.59;7405161;19;1781;-39
2022/08/01 04:00:49;;;;;;;;;;;;;;;24.94;47.48;100312.91;7404332;19;1568;-39
2022/08/01 04:03:20;;;;;;;;;;;;;;;25.03;47.37;100309.09;7402453;19;1626;-39
2022/08/01 04:05:53;;;;;;;;;;;;;;;25.10;47.13;100301.06;7405292;19;2024;-39
2022/08/01 04:08:24;;;;;;;;;;;;;;;25.13;47.06;100319.63;7405827;19;1563;-39
2022/08/01 04:10:53;;;;;;;;;;;;;;;25.12;47.79;100299.84;7402878;19;2047;-39
2022/08/01 04:13:23;;;;;;;;;;;;;;;25.15;46.96;100302.19;7400307;19;1843;-39
2022/08/01 04:15:51;;;;;;;;;;;;;;;25.24;47.96;100292.13;7404664;19;1831;-39
2022/08/01 04:18:20;;;;;;;;;;;;;;;25.35;48.37;100288.94;7402369;19;1533;-39
2022/08/01 04:20:54;;;;;;;;;;;;;;;25.33;48.30;100315.34;7403957;19;1603;-38
2022/08/01 04:23:44;;;;;;;;;;;;;;;25.37;48.13;100295.00;7402165;19;1475;-38
2022/08/01 04:26:15;;;;;;;;;;;;;;;25.48;47.95;100298.25;7402173;19;1423;-39
2022/08/01 04:28:47;;;;;;;;;;;;;;;25.46;48.12;100281.34;7402033;19;1842;-39
2022/08/01 04:34:00;;;;;;;;;;;;;;;25.50;49.67;100291.59;7400106;19;1946;-38
2022/08/01 04:36:33;;;;;;;;;;;;;;;25.49;49.65;100292.66;7402843;19;1683;-38
2022/08/01 04:39:03;;;;;;;;;;;;;;;25.43;50.35;100297.97;7401772;19;1925;-39
2022/08/01 04:41:32;;;;;;;;;;;;;;;25.51;50.46;100284.34;7403989;19;1698;-39
2022/08/01 04:44:02;;;;;;;;;;;;;;;25.56;50.04;100274.59;7404728;19;1833;-39
2022/08/01 04:46:36;;;;;;;;;;;;;;;25.63;50.16;100280.09;7402124;19;1944;-39
2022/08/01 04:49:16;;;;;;;;;;;;;;;25.56;50.10;100288.13;7400518;19;1615;-39
2022/08/01 04:52:08;;;;;;;;;;;;;;;25.52;49.25;100291.41;7398686;19;1846;-39
2022/08/01 04:54:43;;;;;;;;;;;;;;;25.55;50.22;100266.69;7401081;19;1925;-39
2022/08/01 04:57:14;;;;;;;;;;;;;;;25.62;49.15;100286.53;7400562;19;1724;-39
2022/08/01 04:59:59;;;;;;;;;;;;;;;25.66;49.18;100279.69;7400183;19;1397;-40
2022/08/01 05:02:31;;;;;;;;;;;;;;;25.67;48.94;100281.41;7399612;19;1863;-39
2022/08/01 05:05:02;;;;;;;;;;;;;;;25.75;50.03;100272.31;7402390;19;1765;-40
2022/08/01 05:07:32;;;;;;;;;;;;;;;25.57;47.26;100283.56;7403169;19;1361;-40
2022/08/01 05:10:13;;;;;;;;;;;;;;;25.80;50.22;100276.13;7402728;19;1413;-39
2022/08/01 05:12:42;;;;;;;;;;;;;;;25.80;51.06;100277.97;7399988;19;1865;-39
2022/08/01 05:15:25;;;;;;;;;;;;;;;25.87;51.76;100275.34;7403096;19;1588;-39
2022/08/01 05:17:57;;;;;;;;;;;;;;;25.94;51.52;100287.09;7401937;19;1523;-40
2022/08/01 05:20:28;;;;;;;;;;;;;;;25.99;51.70;100279.25;7401067;19;1678;-39
2022/08/01 05:23:08;;;;;;;;;;;;;;;25.93;51.74;100271.91;7401755;19;1447;-39
2022/08/01 05:25:43;;;;;;;;;;;;;;;25.92;51.89;100267.50;7403640;19;1098;-38
2022/08/01 05:28:12;;;;;;;;;;;;;;;25.91;52.02;100282.09;7402060;19;1456;-39
2022/08/01 05:30:44;;;;;;;;;;;;;;;25.91;52.28;100263.13;7401909;19;1399;-39
2022/08/01 05:33:15;;;;;;;;;;;;;;;25.88;52.32;100269.72;7400058;19;1846;-39
2022/08/01 05:35:45;;;;;;;;;;;;;;;25.87;52.43;100269.94;7401841;19;1798;-39
2022/08/01 05:38:16;;;;;;;;;;;;;;;25.86;52.80;100279.06;7402314;19;1822;-39
2022/08/01 05:40:52;;;;;;;;;;;;;;;25.84;52.91;100270.31;7399124;19;1971;-38
2022/08/01 05:43:20;;;;;;;;;;;;;;;25.87;53.00;100259.09;7402308;19;2063;-39
2022/08/01 05:45:51;;;;;;;;;;;;;;;25.85;52.88;100267.41;7402170;19;1904;-39
2022/08/01 05:48:23;;;;;;;;;;;;;;;25.89;53.19;100278.72;7400225;19;1479;-39
2022/08/01 05:50:52;;;;;;;;;;;;;;;25.85;53.01;100263.88;7401024;19;1536;-39
2022/08/01 05:53:24;;;;;;;;;;;;;;;25.85;53.15;100258.47;7400711;19;1849;-39
2022/08/01 05:56:01;;;;;;;;;;;;;;;25.85;53.31;100253.03;7402366;19;1091;-39
2022/08/01 05:58:31;;;;;;;;;;;;;;;25.87;53.37;100261.81;7402299;19;1733;-38
2022/08/01 06:01:01;;;;;;;;;;;;;;;25.88;53.43;100263.47;7400452;19;1608;-39
2022/08/01 06:03:43;;;;;;;;;;;;;;;25.89;53.35;100273.28;7399384;19;1807;-40
2022/08/01 06:06:17;;;;;;;;;;;;;;;25.90;53.97;100291.22;7401548;19;1387;-38
2022/08/01 06:08:46;;;;;;;;;;;;;;;25.88;54.07;100275.13;7400785;19;1875;-39
2022/08/01 06:11:31;;;;;;;;;;;;;;;25.90;53.90;100259.56;7401119;19;1026;-39
2022/08/01 06:14:03;;;;;;;;;;;;;;;25.92;53.93;100273.75;7400770;19;1859;-38
2022/08/01 06:16:32;;;;;;;;;;;;;;;25.93;54.00;100280.03;7400479;19;2010;-39
2022/08/01 06:19:04;;;;;;;;;;;;;;;25.91;53.70;100279.38;7401251;19;1617;-39
2022/08/01 06:21:32;;;;;;;;;;;;;;;25.91;53.85;100276.69;7400662;19;1483;-39
2022/08/01 06:24:03;;;;;;;;;;;;;;;25.94;54.03;100292.53;7400701;19;1934;-39
2022/08/01 06:26:36;;;;;;;;;;;;;;;25.92;53.92;100281.88;7401369;19;1658;-39
2022/08/01 06:29:04;;;;;;;;;;;;;;;25.91;54.08;100284.81;7400877;19;1713;-39
2022/08/01 06:31:36;;;;;;;;;;;;;;;25.94;54.04;100287.97;7401022;19;1974;-39
2022/08/01 06:34:07;;;;;;;;;;;;;;;25.90;54.02;100273.09;7398285;19;1934;-39
2022/08/01 06:36:35;;;;;;;;;;;;;;;25.89;54.17;100270.59;7400092;19;1473;-39
2022/08/01 06:39:14;;;;;;;;;;;;;;;25.90;54.36;100292.06;7401124;19;2057;-39
2022/08/01 06:41:50;;;;;;;;;;;;;;;25.91;54.31;100271.25;7398604;19;1713;-39
2022/08/01 06:44:28;;;;;;;;;;;;;;;25.82;53.34;100264.25;7400362;19;1532;-39
2022/08/01 06:47:00;;;;;;;;;;;;;;;25.29;57.19;100276.16;7399720;19;1520;-39
2022/08/01 06:49:28;;;;;;;;;;;;;;;24.97;57.39;100291.75;7398517;19;1973;-39
2022/08/01 06:51:57;;;;;;;;;;;;;;;24.09;57.76;100277.00;7404042;19;1858;-39
2022/08/01 06:54:27;;;;;;;;;;;;;;;23.58;56.57;100276.66;7405925;19;1596;-38
2022/08/01 06:57:02;;;;;;;;;;;;;;;23.36;55.55;100278.31;7407577;19;1463;-39
2022/08/01 06:59:34;;;;;;;;;;;;;;;23.75;54.42;100270.13;7405653;19;1513;-39
2022/08/01 07:02:06;;;;;;;;;;;;;;;24.16;53.97;100277.13;7405350;19;1913;-38
2022/08/01 07:04:34;;;;;;;;;;;;;;;24.20;55.01;100273.03;7406609;19;1675;-38
2022/08/01 07:07:03;;;;;;;;;;;;;;;24.09;57.09;100271.59;7405592;19;1798;-39
2022/08/01 07:09:32;;;;;;;;;;;;;;;24.15;57.81;100281.69;7406809;19;1450;-38
2022/08/01 07:12:05;;;;;;;;;;;;;;;24.33;57.37;100284.06;7404957;19;1767;-41
2022/08/01 07:14:34;;;;;;;;;;;;;;;24.33;58.46;100283.22;7407598;19;1380;-38
2022/08/01 07:17:03;;;;;;;;;;;;;;;24.15;59.57;100286.25;7407236;19;1932;-39
2022/08/01 07:19:33;;;;;;;;;;;;;;;24.15;60.30;100281.69;7405684;19;1610;-39
2022/08/01 07:22:01;;;;;;;;;;;;;;;24.19;60.75;100274.03;7404090;19;1416;-40
2022/08/01 07:24:34;;;;;;;;;;;;;;;24.19;60.98;100285.72;7407077;19;1835;-39
2022/08/01 07:27:11;;;;;;;;;;;;;;;24.29;60.63;100292.72;7404132;19;1582;-39
2022/08/01 07:29:39;;;;;;;;;;;;;;;24.26;61.30;100287.69;7405050;19;1693;-39
2022/08/01 07:32:09;;;;;;;;;;;;;;;24.27;61.51;100273.13;7405985;19;1351;-38
2022/08/01 07:34:40;;;;;;;;;;;;;;;24.30;61.69;100276.31;7407704;19;1878;-39
2022/08/01 07:37:10;;;;;;;;;;;;;;;24.18;60.92;100296.69;7407157;19;1599;-39
2022/08/01 07:39:46;;;;;;;;;;;;;;;23.98;60.46;100274.75;7406826;19;1996;-39
2022/08/01 07:42:19;;;;;;;;;;;;;;;24.27;60.11;100275.84;7405278;19;1800;-39
2022/08/01 07:44:48;;;;;;;;;;;;;;;24.25;60.80;100284.13;7407050;19;1734;-39
2022/08/01 07:47:17;;;;;;;;;;;;;;;24.23;61.38;100280.75;7405150;19;1614;-39
2022/08/01 07:49:48;;;;;;;;;;;;;;;24.14;61.43;100279.16;7405552;19;1478;-39
2022/08/01 07:52:20;;;;;;;;;;;;;;;23.90;61.10;100270.22;7406031;19;1755;-39
2022/08/01 07:54:48;;;;;;;;;;;;;;;23.70;60.95;100269.84;7405803;19;1678;-39
2022/08/01 07:57:31;;;;;;;;;;;;;;;;;;;;;
2022/08/01 07:59:59;;;;;;;;;;;;;;;23.80;59.41;100272.34;7404666;19;1406;-39
2022/08/01 08:02:48;;;;;;;;;;;;;;;24.08;58.83;100274.50;7402015;19;1720;-39
2022/08/01 08:05:21;;;;;;;;;;;;;;;24.18;59.51;100265.09;7403817;19;1834;-38
2022/08/01 08:07:49;;;;;;;;;;;;;;;24.24;59.55;100278.94;7406154;19;1732;-39
2022/08/01 08:10:19;;;;;;;;;;;;;;;24.31;60.01;100279.84;7403699;19;1484;-39
2022/08/01 08:12:52;;;;;;;;;;;;;;;24.38;60.37;100283.53;7403132;19;2137;-39
2022/08/01 08:15:24;;;;;;;;;;;;;;;24.34;60.67;100274.94;7403552;19;1365;-39
2022/08/01 08:18:01;;;;;;;;;;;;;;;24.36;60.61;100280.16;7404110;19;1525;-39
2022/08/01 08:20:32;;;;;;;;;;;;;;;24.31;61.02;100271.75;7404826;19;1483;-39
2022/08/01 08:24:19;;;;;;;;;;;;;;;24.30;61.23;100286.31;7404577;19;2065;-39
2022/08/01 08:26:01;;;;;;;;;;;;;;;24.42;61.42;100299.19;7404561;19;1901;-39
2022/08/01 08:28:35;;;;;;;;;;;;;;;24.36;61.88;100280.16;7404030;19;1566;-39
2022/08/01 08:31:03;;;;;;;;;;;;;;;24.34;62.01;100295.72;7404260;19;1545;-39
2022/08/01 08:33:31;;;;;;;;;;;;;;;24.34;62.00;100276.81;7403099;19;1865;-40
2022/08/01 08:36:00;;;;;;;;;;;;;;;24.30;60.94;100272.78;7404045;19;1661;-39
2022/08/01 08:38:29;;;;;;;;;;;;;;;24.17;60.59;100270.69;7405233;19;1604;-38
2022/08/01 08:41:01;;;;;;;;;;;;;;;24.17;60.68;100285.06;7403862;19;1888;-39
2022/08/01 08:43:31;;;;;;;;;;;;;;;24.22;61.23;100277.22;7403322;19;1686;-38
2022/08/01 08:46:12;;;;;;;;;;;;;;;24.25;61.17;100289.53;7402896;19;1751;-39
2022/08/01 08:48:44;;;;;;;;;;;;;;;24.35;61.13;100283.88;7403328;19;1455;-38
2022/08/01 08:51:20;;;;;;;;;;;;;;;24.29;61.48;100290.00;7404022;19;1585;-39
2022/08/01 08:53:49;;;;;;;;;;;;;;;24.22;62.25;100277.22;7403137;19;1852;-38
2022/08/01 08:56:33;;;;;;;;;;;;;;;24.26;62.07;100282.28;7403906;19;1434;-38
2022/08/01 08:59:05;;;;;;;;;;;;;;;24.24;62.06;100282.47;7403717;19;1859;-39
2022/08/01 09:01:40;;;;;;;;;;;;;;;24.36;61.98;100293.69;7400963;19;2061;-40
2022/08/01 09:04:11;;;;;;;;;;;;;;;24.40;62.01;100290.41;7399799;19;1476;-40
2022/08/01 09:06:43;;;;;;;;;;;;;;;23.76;61.21;100293.41;7402844;19;1893;-39
2022/08/01 09:09:15;;;;;;;;;;;;;;;23.13;60.33;100275.53;7403137;19;1687;-38
2022/08/01 09:11:43;;;;;;;;;;;;;;;23.00;59.24;100290.38;7403387;19;1584;-39
2022/08/01 09:14:22;;;;;;;;;;;;;;;22.80;57.97;100287.22;7400163;19;1865;-39
2022/08/01 09:17:09;;;;;;;;;;;;;;;23.20;57.20;100273.81;7400953;19;1842;-39
2022/08/01 09:19:44;;;;;;;;;;;;;;;23.45;57.50;100276.38;7403844;19;1983;-38
2022/08/01 09:22:17;;;;;;;;;;;;;;;23.29;58.61;100275.44;7403638;19;1482;-38
2022/08/01 09:25:00;;;;;;;;;;;;;;;23.30;58.77;100276.28;7402982;19;1958;-38
2022/08/01 09:27:28;;;;;;;;;;;;;;;23.28;59.37;100271.09;7401966;19;1507;-38
2022/08/01 09:30:05;;;;;;;;;;;;;;;23.23;59.42;100278.84;7402093;19;1515;-39
2022/08/01 09:32:36;;;;;;;;;;;;;;;23.23;59.50;100271.59;7403037;19;1913;-38
2022/08/01 09:35:21;;;;;;;;;;;;;;;23.29;59.90;100275.44;7400895;19;1846;-38
2022/08/01 09:38:15;;;;;;;;;;;;;;;23.31;59.75;100268.00;7401215;19;1936;-38
2022/08/01 09:40:56;;;;;;;;;;;;;;;23.34;59.73;100278.47;7403093;19;1633;-38
2022/08/01 09:43:28;;;;;;;;;;;;;;;23.27;59.99;100274.78;7401051;19;1906;-38
2022/08/01 09:46:18;;;;;;;;;;;;;;;23.31;60.11;100273.41;7401302;19;1535;-38
2022/08/01 09:49:11;;;;;;;;;;;;;;;23.24;60.42;100267.06;7401554;19;1533;-38
2022/08/01 09:51:44;;;;;;;;;;;;;;;23.21;60.42;100278.19;7402350;19;1992;-38
2022/08/01 09:54:29;;;;;;;;;;;;;;;23.22;60.42;100264.53;7400458;19;2032;-38
2022/08/01 09:57:14;;;;;;;;;;;;;;;23.18;60.53;100271.28;7399924;19;1527;-38
2022/08/01 09:59:46;;;;;;;;;;;;;;;23.20;60.56;100276.53;7401620;19;1605;-38
2022/08/01 10:02:16;;;;;;;;;;;;;;;23.26;60.34;100299.22;7401391;19;1603;-38
2022/08/01 10:04:51;;;;;;;;;;;;;;;23.22;60.51;100291.50;7399329;19;1481;-38
2022/08/01 10:07:23;;;;;;;;;;;;;;;23.18;60.60;100282.06;7401436;19;1473;-38
2022/08/01 10:09:55;;;;;;;;;;;;;;;23.13;60.50;100287.16;7400222;19;1763;-39
2022/08/01 10:12:28;;;;;;;;;;;;;;;23.08;60.55;100294.06;7399731;19;1525;-38
2022/08/01 10:14:58;;;;;;;;;;;;;;;23.13;60.45;100299.78;7397829;19;1857;-40
2022/08/01 10:17:29;;;;;;;;;;;;;;;23.07;60.61;100300.50;7399102;19;1513;-40
2022/08/01 10:20:02;;;;;;;;;;;;;;;23.11;60.73;100309.91;7400616;19;1774;-38
2022/08/01 10:22:34;;;;;;;;;;;;;;;23.10;60.45;100294.75;7401620;19;1616;-38
2022/08/01 10:25:07;;;;;;;;;;;;;;;23.09;60.53;100301.16;7401912;19;1324;-38
2022/08/01 10:27:49;;;;;;;;;;;;;;;23.00;60.81;100287.69;7405615;19;1966;-39
2022/08/01 10:30:30;;;;;;;;;;;;;;;23.11;60.30;100299.97;7408811;19;1599;-38
2022/08/01 10:33:00;;;;;;;;;;;;;;;23.11;60.58;100299.13;7407007;19;1611;-38
2022/08/01 10:35:31;;;;;;;;;;;;;;;23.05;60.70;100291.75;7405121;19;1842;-38
2022/08/01 10:38:00;;;;;;;;;;;;;;;23.03;60.62;100292.75;7407531;19;1682;-38
2022/08/01 10:40:31;;;;;;;;;;;;;;;23.07;60.47;100289.72;7408978;19;1479;-38
2022/08/01 10:43:11;;;;;;;;;;;;;;;22.97;60.63;100298.78;7407928;19;1661;-39
2022/08/01 10:45:40;;;;;;;;;;;;;;;22.97;60.57;100323.06;7407723;19;1455;-38
2022/08/01 10:48:15;;;;;;;;;;;;;;;23.22;59.49;100312.25;7407971;19;1713;-38
2022/08/01 10:50:53;;;;;;;;;;;;;;;23.34;58.93;100301.91;7407733;19;2028;-38
2022/08/01 10:53:26;;;;;;;;;;;;;;;23.00;59.98;100297.63;7408465;19;1853;-38
2022/08/01 10:56:03;;;;;;;;;;;;;;;23.05;60.03;100302.53;7408731;19;1364;-39
2022/08/01 10:58:40;;;;;;;;;;;;;;;23.26;59.03;100301.94;7409185;19;1300;-38
2022/08/01 11:01:23;;;;;;;;;;;;;;;23.15;59.45;100300.47;7408148;19;1627;-38
2022/08/01 11:04:09;;;;;;;;;;;;;;;23.05;59.96;100292.56;7407076;19;1663;-37
2022/08/01 11:06:44;;;;;;;;;;;;;;;23.12;59.55;100295.41;7407476;19;1631;-39
2022/08/01 11:09:25;;;;;;;;;;;;;;;23.38;58.83;100301.38;7406536;19;1734;-40
2022/08/01 11:12:02;;;;;;;;;;;;;;;23.08;59.52;100285.97;7407271;19;1601;-38
2022/08/01 11:15:10;;;;;;;;;;;;;;;22.96;60.28;100297.13;7406481;19;1860;-39
2022/08/01 11:17:44;;;;;;;;;;;;;;;22.91;60.25;100299.50;7405868;19;2168;-38
2022/08/01 11:20:14;;;;;;;;;;;;;;;23.27;59.08;100284.75;7406063;19;1453;-38
2022/08/01 11:22:57;;;;;;;;;;;;;;;23.36;59.07;100299.88;7407765;19;1529;-39
2022/08/01 11:25:26;;;;;;;;;;;;;;;23.02;59.76;100291.06;7410067;19;1530;-38
2022/08/01 11:28:19;;;;;;;;;;;;;;;22.88;60.16;100301.69;7405849;19;1791;-39
2022/08/01 11:31:03;;;;;;;;;;;;;;;22.95;60.15;100284.66;7405864;19;1831;-38
2022/08/01 11:33:49;;;;;;;;;;;;;;;23.33;58.84;100282.16;7407033;19;1865;-38
2022/08/01 11:36:31;;;;;;;;;;;;;;;23.22;59.32;100286.09;7405999;19;1646;-38
2022/08/01 11:39:15;;;;;;;;;;;;;;;22.97;59.79;100281.78;7403753;19;1472;-39
2022/08/01 11:41:48;;;;;;;;;;;;;;;23.21;59.00;100284.41;7406076;19;1959;-39
2022/08/01 11:47:13;;;;;;;;;;;;;;;22.96;59.82;100278.25;7404187;19;2234;-39
2022/08/01 11:49:55;;;;;;;;;;;;;;;23.17;59.54;100276.84;7406408;19;1749;-38
2022/08/01 11:52:35;;;;;;;;;;;;;;;23.33;58.68;100276.78;7407012;19;1901;-39
2022/08/01 11:55:10;;;;;;;;;;;;;;;23.16;59.47;100280.59;7405058;19;1840;-38
2022/08/01 11:57:47;;;;;;;;;;;;;;;23.08;59.78;100286.84;7406082;19;1319;-39
2022/08/01 12:00:18;;;;;;;;;;;;;;;23.25;59.29;100275.97;7406414;19;1497;-38
2022/08/01 12:02:48;;;;;;;;;;;;;;;23.31;59.04;100273.41;7403426;19;2039;-39
2022/08/01 12:05:20;;;;;;;;;;;;;;;23.16;59.54;100272.50;7405208;19;1646;-38
2022/08/01 12:08:06;;;;;;;;;;;;;;;23.03;59.97;100276.56;7404797;19;1466;-39
2022/08/01 12:10:38;;;;;;;;;;;;;;;22.96;60.44;100275.56;7405105;19;2053;-38
2022/08/01 12:13:08;;;;;;;;;;;;;;;23.12;60.25;100268.44;7404626;19;1474;-38
2022/08/01 12:15:40;;;;;;;;;;;;;;;23.34;59.17;100270.38;7402871;19;1843;-37
2022/08/01 12:18:10;;;;;;;;;;;;;;;23.12;59.91;100279.22;7404915;19;1715;-38
2022/08/01 12:20:39;;;;;;;;;;;;;;;23.08;60.13;100269.78;7402867;19;1642;-38
2022/08/01 12:23:14;;;;;;;;;;;;;;;23.88;58.48;100274.13;7404378;19;1691;-39
2022/08/01 12:25:53;;;;;;;;;;;;;;;24.32;57.02;100265.34;7405080;19;1647;-38
2022/08/01 12:28:24;;;;;;;;;;;;;;;24.52;56.97;100244.91;7404885;19;1585;-39
2022/08/01 12:31:13;;;;;;;;;;;;;;;24.61;56.74;100253.75;7404825;19;1909;-40
2022/08/01 12:33:44;;;;;;;;;;;;;;;24.69;56.91;100250.13;7404751;19;1639;-39
2022/08/01 12:36:13;;;;;;;;;;;;;;;24.75;56.48;100243.97;7401997;19;1886;-39
2022/08/01 12:39:03;;;;;;;;;;;;;;;24.83;56.43;100257.41;7403333;19;1644;-39
2022/08/01 12:41:48;;;;;;;;;;;;;;;24.90;56.54;100225.88;7402188;19;1788;-39
2022/08/01 12:44:20;;;;;;;;;;;;;;;24.95;56.66;100247.81;7401639;19;1468;-39
2022/08/01 12:46:48;;;;;;;;;;;;;;;24.99;56.64;100251.81;7404275;19;1566;-38
2022/08/01 12:49:19;;;;;;;;;;;;;;;25.04;56.43;100245.81;7403271;19;2095;-38
2022/08/01 12:51:48;;;;;;;;;;;;;;;25.07;56.42;100231.94;7401530;19;1525;-39
2022/08/01 12:54:20;;;;;;;;;;;;;;;25.11;56.84;100241.34;7400770;19;1877;-38
2022/08/01 12:56:52;;;;;;;;;;;;;;;25.16;56.28;100246.19;7402822;19;1411;-39
2022/08/01 12:59:34;;;;;;;;;;;;;;;25.20;56.79;100231.25;7404057;19;1589;-40
2022/08/01 13:02:13;;;;;;;;;;;;;;;25.23;57.09;100233.63;7402833;19;1692;-37
2022/08/01 13:07:50;;;;;;;;;;;;;;;25.25;57.90;100242.38;7400746;19;1502;-38
2022/08/01 13:10:29;;;;;;;;;;;;;;;25.22;57.68;100233.81;7404710;19;1587;-38
2022/08/01 13:13:03;;;;;;;;;;;;;;;25.25;57.51;100234.28;7403825;19;1514;-39
2022/08/01 13:15:43;;;;;;;;;;;;;;;25.26;57.69;100248.63;7400863;19;1916;-38
2022/08/01 13:18:29;;;;;;;;;;;;;;;25.29;57.71;100240.97;7403654;19;1674;-38
2022/08/01 13:21:35;;;;;;;;;;;;;;;25.33;57.75;100231.44;7401837;19;1801;-39
2022/08/01 13:24:07;;;;;;;;;;;;;;;25.41;57.89;100235.91;7402990;19;1645;-39
2022/08/01 13:26:49;;;;;;;;;;;;;;;25.42;57.97;100245.69;7403805;19;1475;-40
2022/08/01 13:29:21;;;;;;;;;;;;;;;25.41;57.98;100227.78;7402737;19;1638;-39
2022/08/01 13:31:53;;;;;;;;;;;;;;;25.47;58.15;100247.84;7403162;19;1833;-39